Time;durP1;ratioP1;P1;durP2;ratioP2;P2;SDS_P1;SDS_P2;PMS_P1;PMS_P2;Temp;Humidity;BMP_temperature;BMP_pressure;BME280_temperature;BME280_humidity;BME280_pressure;Samples;Min_cycle;Max_cycle;Signal;HPM_P1;HPM_P2
2022/05/10 00:01:03;;;;;;;2.90;2.05;;;12.90;49.10;;;;;;5092811;28;20391;-59
2022/05/10 00:03:35;;;;;;;2.47;2.10;;;12.90;49.10;;;;;;5092311;28;20024;-59
2022/05/10 00:06:02;;;;;;;2.53;1.83;;;12.80;49.10;;;;;;5091388;28;20092;-59
2022/05/10 00:08:28;;;;;;;2.58;1.85;;;12.80;49.20;;;;;;5092973;28;20129;-59
2022/05/10 00:10:56;;;;;;;4.18;2.05;;;12.80;49.50;;;;;;5090787;28;20028;-59
2022/05/10 00:13:23;;;;;;;2.17;2.00;;;12.80;49.30;;;;;;5088501;28;20024;-59
2022/05/10 00:15:49;;;;;;;2.65;2.10;;;12.80;49.20;;;;;;5087865;28;20044;-59
2022/05/10 00:18:16;;;;;;;2.05;1.85;;;12.80;49.40;;;;;;5091497;28;20077;-59
2022/05/10 00:20:44;;;;;;;2.10;1.63;;;12.80;49.50;;;;;;5091443;28;20132;-59
2022/05/10 00:23:10;;;;;;;2.22;1.70;;;12.80;49.60;;;;;;5092621;28;20040;-59
2022/05/10 00:25:36;;;;;;;2.85;2.00;;;12.70;49.60;;;;;;5089184;28;20020;-59
2022/05/10 00:28:01;;;;;;;2.92;2.08;;;12.70;49.70;;;;;;5089408;28;20036;-59
2022/05/10 00:30:27;;;;;;;2.42;2.00;;;12.70;49.80;;;;;;5088376;28;20043;-59
2022/05/10 00:32:53;;;;;;;2.10;1.90;;;12.70;49.90;;;;;;5082877;28;20032;-58
2022/05/10 00:35:24;;;;;;;2.28;2.08;;;12.70;50.20;;;;;;5088170;28;20033;-59
2022/05/10 00:37:52;;;;;;;3.13;2.20;;;12.70;50.00;;;;;;5090389;28;20039;-59
2022/05/10 00:40:21;;;;;;;2.10;1.90;;;12.60;50.00;;;;;;5091608;28;20463;-59
2022/05/10 00:42:55;;;;;;;2.60;2.40;;;12.60;50.10;;;;;;5091702;28;20070;-59
2022/05/10 00:45:53;;;;;;;2.35;2.17;;;12.60;50.30;;;;;;5087802;28;20103;-59
2022/05/10 00:48:26;;;;;;;2.50;2.03;;;12.60;50.10;;;;;;5088293;28;20029;-59
2022/05/10 00:51:26;;;;;;;2.88;2.38;;;12.50;51.00;;;;;;5089323;28;20032;-58
2022/05/10 00:54:17;;;;;;;2.50;2.30;;;12.50;50.50;;;;;;5090793;28;20507;-58
2022/05/10 00:57:19;;;;;;;2.92;2.45;;;12.50;50.50;;;;;;5087442;28;20555;-59
2022/05/10 01:00:05;;;;;;;2.38;2.17;;;12.50;50.30;;;;;;5090288;28;20418;-59
2022/05/10 01:02:37;;;;;;;3.13;2.63;;;12.40;50.20;;;;;;5091093;28;20610;-58
2022/05/10 01:05:17;;;;;;;2.70;2.38;;;12.40;50.30;;;;;;5090407;28;20039;-59
2022/05/10 01:08:13;;;;;;;2.42;2.22;;;12.40;50.70;;;;;;5090987;28;20479;-59
2022/05/10 01:10:49;;;;;;;2.78;2.40;;;12.40;50.40;;;;;;5059264;28;20075;-59
2022/05/10 01:13:22;;;;;;;3.28;2.20;;;12.40;50.50;;;;;;5088323;28;20035;-59
2022/05/10 01:16:04;;;;;;;2.65;2.28;;;12.40;50.40;;;;;;5089232;28;20024;-59
2022/05/10 01:18:30;;;;;;;2.60;2.30;;;12.40;50.60;;;;;;5088932;28;20020;-59
2022/05/10 01:21:02;;;;;;;3.05;2.75;;;12.40;50.70;;;;;;5086172;28;20100;-59
2022/05/10 01:23:39;;;;;;;3.22;2.60;;;12.30;50.80;;;;;;5083675;28;20537;-59
2022/05/10 01:26:11;;;;;;;4.18;2.85;;;12.30;51.00;;;;;;5085453;28;20059;-59
2022/05/10 01:28:43;;;;;;;2.85;2.60;;;12.30;51.00;;;;;;5088954;28;20391;-59
2022/05/10 01:31:17;;;;;;;2.85;2.28;;;12.30;51.10;;;;;;5086606;28;20504;-59
2022/05/10 01:33:49;;;;;;;3.17;2.55;;;12.30;51.00;;;;;;5087203;28;20016;-59
2022/05/10 01:36:32;;;;;;;4.50;2.88;;;12.30;51.00;;;;;;5090261;28;20044;-59
2022/05/10 01:39:13;;;;;;;4.15;2.70;;;12.30;50.80;;;;;;5086826;28;20399;-59
2022/05/10 01:41:53;;;;;;;3.58;2.72;;;12.20;50.80;;;;;;5089138;28;20563;-59
2022/05/10 01:44:33;;;;;;;4.32;2.53;;;12.20;51.40;;;;;;5085931;28;20174;-59
2022/05/10 01:47:24;;;;;;;3.47;2.60;;;12.10;50.80;;;;;;5085613;28;20024;-59
2022/05/10 01:50:04;;;;;;;4.83;3.40;;;12.10;50.80;;;;;;5088878;28;20028;-59
2022/05/10 01:52:52;;;;;;;3.38;2.90;;;12.10;51.00;;;;;;5087483;28;20276;-59
2022/05/10 01:55:52;;;;;;;4.47;2.95;;;12.00;51.10;;;;;;5085728;28;20024;-59
2022/05/10 01:58:27;;;;;;;3.45;2.90;;;12.00;51.10;;;;;;5089583;28;20044;-58
2022/05/10 02:00:55;;;;;;;3.55;3.20;;;12.00;51.10;;;;;;5086805;28;20024;-59
2022/05/10 02:03:34;;;;;;;3.88;3.10;;;11.90;51.10;;;;;;5088925;28;20029;-59
2022/05/10 02:06:26;;;;;;;4.07;3.20;;;11.90;51.10;;;;;;5085855;28;20020;-59
2022/05/10 02:09:07;;;;;;;4.45;3.20;;;11.90;51.30;;;;;;5085129;28;20448;-59
2022/05/10 02:11:40;;;;;;;4.90;3.50;;;11.90;51.30;;;;;;5085440;28;20032;-59
2022/05/10 02:14:08;;;;;;;5.13;3.33;;;11.90;51.40;;;;;;5087391;28;20030;-59
2022/05/10 02:16:51;;;;;;;4.50;3.22;;;11.90;51.50;;;;;;5090139;28;20500;-59
2022/05/10 02:19:23;;;;;;;4.65;3.35;;;11.90;51.60;;;;;;5087414;28;20029;-59
2022/05/10 02:21:57;;;;;;;4.53;3.42;;;11.90;51.70;;;;;;5088008;28;20105;-59
2022/05/10 02:24:29;;;;;;;3.67;3.10;;;11.80;51.80;;;;;;5087677;28;20099;-58
2022/05/10 02:27:12;;;;;;;4.63;3.60;;;11.80;52.00;;;;;;5087698;28;20024;-59
2022/05/10 02:29:46;;;;;;;4.90;3.28;;;11.80;52.20;;;;;;5086682;28;20085;-59
2022/05/10 02:35:08;;;;;;;5.25;3.70;;;11.80;52.30;;;;;;5086673;28;20105;-58
2022/05/10 02:37:34;;;;;;;5.30;3.55;;;11.80;52.50;;;;;;5088825;28;20051;-59
2022/05/10 02:40:01;;;;;;;5.50;3.65;;;11.80;52.50;;;;;;5086313;28;20520;-59
2022/05/10 02:42:28;;;;;;;3.97;3.50;;;11.80;52.60;;;;;;5086574;28;20388;-58
2022/05/10 02:44:55;;;;;;;4.00;3.10;;;11.80;52.80;;;;;;5086940;28;20024;-59
2022/05/10 02:47:37;;;;;;;4.38;3.45;;;11.90;52.60;;;;;;5087376;28;20392;-58
2022/05/10 02:50:05;;;;;;;5.70;3.63;;;11.90;52.60;;;;;;5085571;28;20020;-59
2022/05/10 02:52:31;;;;;;;4.35;3.53;;;11.90;52.50;;;;;;5086037;28;20019;-59
2022/05/10 02:55:00;;;;;;;4.22;3.28;;;11.90;52.50;;;;;;5087930;28;20025;-59
2022/05/10 02:57:28;;;;;;;5.72;3.45;;;12.00;52.50;;;;;;5086972;28;20024;-59
2022/05/10 02:59:57;;;;;;;3.42;3.13;;;12.00;52.50;;;;;;5083476;28;19912;-59
2022/05/10 03:02:32;;;;;;;4.30;3.42;;;12.00;52.50;;;;;;5087498;28;20074;-58
2022/05/10 03:04:58;;;;;;;5.38;3.28;;;12.10;52.50;;;;;;5084805;28;20031;-59
2022/05/10 03:07:25;;;;;;;3.53;3.03;;;12.20;52.60;;;;;;5085971;28;20055;-59
2022/05/10 03:09:51;;;;;;;3.60;3.28;;;12.20;52.40;;;;;;5085863;28;20598;-59
2022/05/10 03:12:17;;;;;;;4.22;3.30;;;12.30;52.30;;;;;;5086888;28;20033;-58
2022/05/10 03:14:42;;;;;;;4.63;3.13;;;12.50;52.30;;;;;;5088689;28;20551;-58
2022/05/10 03:17:10;;;;;;;4.82;3.35;;;12.60;52.20;;;;;;5085756;28;20107;-59
2022/05/10 03:19:42;;;;;;;4.30;3.47;;;12.70;52.10;;;;;;5088488;28;20028;-58
2022/05/10 03:22:09;;;;;;;5.53;3.42;;;12.90;52.20;;;;;;5089711;28;20434;-58
2022/05/10 03:24:36;;;;;;;4.53;3.30;;;13.10;52.20;;;;;;5088265;28;20024;-58
2022/05/10 03:27:05;;;;;;;3.92;3.22;;;13.30;52.40;;;;;;5088181;28;20027;-57
2022/05/10 03:29:31;;;;;;;4.80;3.05;;;13.40;52.30;;;;;;5079204;28;20028;-57
2022/05/10 03:31:57;;;;;;;5.80;4.10;;;13.60;52.70;;;;;;5085402;28;20032;-57
2022/05/10 03:37:07;;;;;;;5.22;3.63;;;14.00;53.20;;;;;;5082362;28;20032;-57
2022/05/10 03:39:32;;;;;;;4.20;3.33;;;14.30;53.40;;;;;;5088276;28;20388;-57
2022/05/10 03:41:58;;;;;;;4.75;3.55;;;14.60;53.50;;;;;;5087737;28;20495;-57
2022/05/10 03:44:24;;;;;;;3.78;3.22;;;14.80;53.30;;;;;;5084168;28;20020;-57
2022/05/10 03:46:50;;;;;;;4.55;3.30;;;15.10;53.10;;;;;;5087924;28;20123;-57
2022/05/10 03:49:16;;;;;;;4.78;2.85;;;15.50;52.60;;;;;;5086573;28;20045;-57
2022/05/10 03:51:42;;;;;;;3.13;2.70;;;15.70;51.70;;;;;;5086233;28;20032;-57
2022/05/10 03:54:07;;;;;;;3.47;2.83;;;16.10;51.50;;;;;;5088701;28;20031;-57
2022/05/10 03:56:34;;;;;;;3.97;2.45;;;16.70;51.20;;;;;;5086281;28;20510;-57
2022/05/10 03:58:59;;;;;;;3.25;2.50;;;17.40;50.50;;;;;;5087434;28;20032;-57
2022/05/10 04:01:25;;;;;;;2.50;2.28;;;18.30;49.50;;;;;;5087284;28;20024;-57
2022/05/10 04:03:51;;;;;;;2.50;2.20;;;19.30;48.20;;;;;;5087255;28;20024;-57
2022/05/10 04:06:17;;;;;;;3.03;2.60;;;20.30;46.90;;;;;;5084510;28;20411;-57
2022/05/10 04:08:42;;;;;;;2.88;2.20;;;21.20;45.80;;;;;;5091930;28;20028;-57
2022/05/10 04:11:10;;;;;;;2.45;2.22;;;22.10;44.70;;;;;;5089992;28;20026;-57
2022/05/10 04:13:38;;;;;;;3.95;2.38;;;22.90;43.50;;;;;;5090847;28;20036;-57
2022/05/10 04:16:04;;;;;;;2.55;2.28;;;23.60;42.70;;;;;;5088182;28;20031;-57
2022/05/10 04:18:29;;;;;;;2.33;2.00;;;24.30;41.90;;;;;;5087550;28;20032;-57
2022/05/10 04:20:55;;;;;;;3.17;2.35;;;24.90;41.30;;;;;;5087171;28;20040;-57
2022/05/10 04:23:21;;;;;;;3.10;2.22;;;25.40;40.80;;;;;;5088342;28;20028;-57
2022/05/10 04:25:47;;;;;;;3.20;2.33;;;25.60;40.10;;;;;;5090355;28;20032;-58
2022/05/10 04:28:12;;;;;;;3.22;2.00;;;25.60;39.70;;;;;;5072291;28;20803;-57
2022/05/10 04:30:38;;;;;;;2.65;2.00;;;25.70;39.70;;;;;;5089356;28;20458;-56
2022/05/10 04:33:04;;;;;;;1.98;1.88;;;26.00;39.40;;;;;;5089766;28;20032;-57
2022/05/10 04:35:30;;;;;;;2.30;1.85;;;26.50;39.20;;;;;;5088264;28;20046;-57
2022/05/10 04:37:55;;;;;;;2.00;1.80;;;27.00;38.70;;;;;;5087769;28;20028;-57
2022/05/10 04:43:06;;;;;;;2.20;2.00;;;27.90;37.90;;;;;;5089567;28;20043;-57
2022/05/10 04:45:33;;;;;;;2.80;2.10;;;28.40;37.40;;;;;;5075121;28;20024;-57
2022/05/10 04:47:59;;;;;;;2.25;1.83;;;28.70;37.10;;;;;;5089446;28;20470;-57
2022/05/10 04:50:25;;;;;;;1.75;1.63;;;29.00;37.10;;;;;;5090247;28;20060;-58
2022/05/10 04:52:51;;;;;;;2.70;1.80;;;29.00;36.30;;;;;;5089296;28;20077;-58
2022/05/10 04:55:16;;;;;;;3.15;1.70;;;29.20;36.40;;;;;;5090400;28;20541;-58
2022/05/10 04:57:42;;;;;;;2.08;1.73;;;29.30;36.10;;;;;;5087639;28;20078;-57
2022/05/10 05:00:11;;;;;;;1.60;1.50;;;29.50;36.00;;;;;;5087371;28;20020;-57
2022/05/10 05:02:37;;;;;;;2.00;1.70;;;29.80;35.70;;;;;;5090662;28;20031;-57
2022/05/10 05:05:04;;;;;;;1.75;1.65;;;29.80;35.40;;;;;;5091739;28;20036;-57
2022/05/10 05:07:29;;;;;;;2.05;1.85;;;29.70;35.10;;;;;;5089153;28;20048;-57
2022/05/10 05:09:55;;;;;;;2.60;1.80;;;29.40;34.80;;;;;;5090783;28;20124;-57
2022/05/10 05:12:22;;;;;;;3.90;2.00;;;28.80;34.50;;;;;;5090080;28;20059;-57
2022/05/10 05:14:48;;;;;;;2.55;2.20;;;28.20;34.70;;;;;;5088614;28;20111;-57
2022/05/10 05:17:13;;;;;;;1.70;1.60;;;27.80;34.80;;;;;;5086966;28;20032;-57
2022/05/10 05:19:39;;;;;;;2.67;1.80;;;27.70;35.00;;;;;;5088631;28;20055;-57
2022/05/10 05:22:05;;;;;;;2.13;1.98;;;27.70;34.50;;;;;;5087386;28;23105;-57
2022/05/10 05:24:30;;;;;;;2.40;1.90;;;27.80;34.10;;;;;;5087016;28;20028;-57
2022/05/10 05:26:57;;;;;;;2.28;2.08;;;27.60;33.80;;;;;;5088156;28;20027;-57
2022/05/10 05:29:23;;;;;;;2.47;2.20;;;27.20;33.70;;;;;;5086659;28;20388;-57
2022/05/10 05:31:51;;;;;;;2.47;2.20;;;26.50;33.90;;;;;;5088261;28;20109;-56
2022/05/10 05:34:17;;;;;;;2.15;1.92;;;25.70;34.00;;;;;;5087114;28;20067;-57
2022/05/10 05:36:44;;;;;;;2.10;1.90;;;24.90;34.50;;;;;;5084228;28;20515;-58
2022/05/10 05:39:09;;;;;;;2.70;2.13;;;24.10;35.10;;;;;;5081961;28;20089;-57
2022/05/10 05:41:35;;;;;;;2.17;1.80;;;23.40;35.50;;;;;;5082797;28;20091;-57
2022/05/10 05:44:01;;;;;;;3.08;2.53;;;22.80;36.10;;;;;;5084227;28;20048;-57
2022/05/10 05:46:26;;;;;;;4.53;2.38;;;22.20;36.40;;;;;;5084659;28;20054;-56
2022/05/10 05:48:52;;;;;;;4.18;2.22;;;21.70;36.90;;;;;;5085296;28;20458;-57
2022/05/10 05:51:18;;;;;;;2.60;2.10;;;21.30;37.50;;;;;;5084601;28;20731;-57
2022/05/10 05:53:43;;;;;;;3.33;2.30;;;20.90;37.60;;;;;;5083103;28;20502;-57
2022/05/10 05:56:10;;;;;;;2.17;1.95;;;20.60;38.00;;;;;;5079685;28;20107;-57
2022/05/10 05:58:38;;;;;;;2.67;2.08;;;20.30;38.30;;;;;;5080958;28;20024;-57
2022/05/10 06:01:15;;;;;;;2.40;2.17;;;20.10;38.70;;;;;;5080034;28;20016;-56
2022/05/10 06:03:42;;;;;;;2.15;1.88;;;19.90;39.00;;;;;;5072047;28;20942;-57
2022/05/10 06:06:09;;;;;;;2.30;2.10;;;19.70;39.10;;;;;;5074161;28;20136;-57
2022/05/10 06:08:35;;;;;;;2.40;2.20;;;19.50;39.40;;;;;;5076469;28;20051;-57
2022/05/10 06:11:01;;;;;;;1.80;1.70;;;19.30;39.40;;;;;;5078656;28;20509;-57
2022/05/10 06:13:27;;;;;;;3.47;2.30;;;19.20;39.60;;;;;;5078966;28;20047;-56
2022/05/10 06:15:54;;;;;;;1.95;1.80;;;19.10;39.90;;;;;;5081772;28;20046;-57
2022/05/10 06:18:22;;;;;;;2.25;2.05;;;19.10;40.00;;;;;;5083071;28;20053;-56
2022/05/10 06:20:48;;;;;;;2.20;2.00;;;19.00;40.00;;;;;;5085929;28;20043;-56
2022/05/10 06:23:15;;;;;;;2.67;2.40;;;18.90;40.10;;;;;;5079915;28;20035;-57
2022/05/10 06:25:40;;;;;;;2.70;2.17;;;18.80;40.20;;;;;;5075797;28;20073;-56
2022/05/10 06:28:06;;;;;;;2.35;1.85;;;18.80;40.30;;;;;;5079769;28;20450;-56
2022/05/10 06:30:32;;;;;;;2.40;2.10;;;18.70;40.50;;;;;;5081399;28;20398;-56
2022/05/10 06:32:59;;;;;;;2.70;2.25;;;18.70;40.60;;;;;;5075794;28;20033;-55
2022/05/10 06:35:27;;;;;;;2.22;2.00;;;18.70;40.30;;;;;;5070179;28;20142;-55
2022/05/10 06:40:37;;;;;;;4.78;2.10;;;18.60;40.10;;;;;;5079475;28;20076;-56
2022/05/10 06:43:03;;;;;;;2.65;2.05;;;18.60;40.00;;;;;;5082013;28;20032;-55
2022/05/10 06:45:29;;;;;;;4.45;2.20;;;18.60;40.00;;;;;;5079266;28;20031;-54
2022/05/10 06:47:55;;;;;;;1.90;1.70;;;18.50;40.00;;;;;;5075314;28;20048;-56
2022/05/10 06:50:23;;;;;;;2.83;2.00;;;18.50;40.30;;;;;;5072309;28;20031;-56
2022/05/10 06:52:51;;;;;;;2.80;2.20;;;18.50;40.00;;;;;;5073386;28;20079;-56
2022/05/10 06:55:17;;;;;;;2.58;1.90;;;18.50;40.10;;;;;;5076685;28;20040;-56
2022/05/10 06:57:43;;;;;;;2.35;1.70;;;18.40;40.20;;;;;;5072654;28;20040;-58
2022/05/10 07:00:13;;;;;;;2.78;2.13;;;18.40;40.10;;;;;;5080350;28;20024;-57
2022/05/10 07:02:40;;;;;;;2.03;1.77;;;18.40;39.90;;;;;;5068554;28;20024;-57
2022/05/10 07:05:09;;;;;;;1.90;1.80;;;18.40;39.60;;;;;;5071078;28;20102;-58
2022/05/10 07:07:35;;;;;;;1.52;1.42;;;18.40;39.00;;;;;;5065383;28;20077;-58
2022/05/10 07:10:02;;;;;;;1.92;1.75;;;18.30;38.60;;;;;;5054815;28;20039;-58
2022/05/10 07:12:27;;;;;;;1.23;1.15;;;18.30;38.00;;;;;;5070287;28;20063;-58
2022/05/10 07:14:53;;;;;;;1.30;1.20;;;18.20;37.40;;;;;;5049205;28;20064;-58
2022/05/10 07:17:19;;;;;;;1.30;1.20;;;18.20;37.20;;;;;;5068883;28;20036;-58
2022/05/10 07:19:45;;;;;;;1.55;1.45;;;18.10;37.00;;;;;;5060349;28;20503;-58
2022/05/10 07:22:11;;;;;;;1.65;1.50;;;18.00;37.00;;;;;;5067756;28;20036;-58
2022/05/10 07:24:36;;;;;;;1.10;1.10;;;17.90;37.00;;;;;;5070623;28;20031;-58
2022/05/10 07:27:02;;;;;;;2.00;1.48;;;17.90;37.00;;;;;;5072703;28;20069;-57
2022/05/10 07:29:28;;;;;;;1.90;1.80;;;17.90;36.90;;;;;;5069749;28;20028;-57
2022/05/10 07:31:54;;;;;;;2.88;1.85;;;17.80;36.90;;;;;;5077989;28;20039;-57
2022/05/10 07:34:20;;;;;;;1.35;1.27;;;17.80;37.10;;;;;;5075553;28;20051;-56
2022/05/10 07:36:46;;;;;;;1.73;1.55;;;17.80;36.90;;;;;;5069740;28;20032;-55
2022/05/10 07:39:16;;;;;;;1.67;1.58;;;17.80;36.90;;;;;;5070799;28;20035;-57
2022/05/10 07:41:43;;;;;;;1.60;1.25;;;17.80;37.20;;;;;;5076144;28;20020;-58
2022/05/10 07:44:11;;;;;;;1.70;1.60;;;17.90;37.60;;;;;;5035315;28;20028;-55
2022/05/10 07:46:37;;;;;;;1.20;1.08;;;17.90;37.30;;;;;;5069916;28;20028;-58
2022/05/10 07:49:04;;;;;;;2.25;1.45;;;17.90;37.00;;;;;;5068045;28;20028;-57
2022/05/10 07:51:30;;;;;;;1.30;1.20;;;17.90;36.60;;;;;;5068665;28;20028;-56
2022/05/10 07:53:55;;;;;;;1.50;1.40;;;17.90;36.50;;;;;;5077881;28;20032;-59
2022/05/10 07:56:24;;;;;;;1.63;1.52;;;17.80;36.60;;;;;;5075476;28;20055;-57
2022/05/10 07:58:50;;;;;;;1.67;1.50;;;17.90;36.70;;;;;;5078514;28;20943;-58
2022/05/10 08:01:15;;;;;;;1.60;1.50;;;17.80;36.60;;;;;;5074131;28;20020;-56
2022/05/10 08:03:43;;;;;;;1.45;1.35;;;17.90;36.80;;;;;;5057948;28;20039;-57
2022/05/10 08:06:09;;;;;;;1.40;1.30;;;17.90;36.60;;;;;;5077504;28;20109;-58
2022/05/10 08:08:36;;;;;;;1.58;1.48;;;17.90;36.40;;;;;;5052981;28;20092;-58
2022/05/10 08:11:04;;;;;;;2.05;1.58;;;17.90;37.30;;;;;;5075660;28;20406;-59
2022/05/10 08:13:32;;;;;;;3.20;1.67;;;17.90;36.90;;;;;;5065556;28;20032;-59
2022/05/10 08:15:59;;;;;;;1.40;1.30;;;17.80;36.80;;;;;;5070185;28;20043;-57
2022/05/10 08:18:26;;;;;;;1.17;1.17;;;17.80;37.60;;;;;;5074469;28;20071;-57
2022/05/10 08:20:56;;;;;;;1.95;1.40;;;17.80;37.60;;;;;;5062339;28;20047;-58
2022/05/10 08:23:25;;;;;;;1.60;1.20;;;17.70;37.30;;;;;;5068003;28;21139;-58
2022/05/10 08:25:55;;;;;;;1.27;1.17;;;17.70;37.10;;;;;;5077020;28;20475;-58
2022/05/10 08:28:23;;;;;;;1.60;1.50;;;17.60;37.20;;;;;;5078249;28;20035;-57
2022/05/10 08:30:49;;;;;;;1.58;1.48;;;17.60;37.20;;;;;;5075191;28;20044;-58
2022/05/10 08:33:23;;;;;;;1.50;1.40;;;17.50;37.10;;;;;;5074206;28;21150;-59
2022/05/10 08:35:49;;;;;;;1.80;1.40;;;17.50;36.90;;;;;;5065522;28;20032;-56
2022/05/10 08:38:16;;;;;;;1.50;1.40;;;17.40;36.90;;;;;;5062349;28;20097;-58
2022/05/10 08:40:47;;;;;;;1.60;1.50;;;17.40;37.20;;;;;;5051754;28;20078;-58
2022/05/10 08:43:24;;;;;;;1.30;1.20;;;17.40;37.70;;;;;;5074498;28;20042;-57
2022/05/10 08:45:50;;;;;;;1.65;1.55;;;17.40;37.80;;;;;;5070434;28;20055;-57
2022/05/10 08:48:16;;;;;;;1.70;1.60;;;17.30;37.50;;;;;;5073153;28;20036;-58
2022/05/10 08:50:47;;;;;;;1.52;1.42;;;17.30;37.30;;;;;;5077029;28;20384;-58
2022/05/10 08:53:14;;;;;;;1.55;1.45;;;17.20;37.00;;;;;;5070807;28;20031;-58
2022/05/10 08:55:55;;;;;;;1.48;1.40;;;17.20;36.90;;;;;;5077971;28;20419;-58
2022/05/10 08:58:36;;;;;;;1.77;1.50;;;17.20;37.50;;;;;;5066774;28;20040;-58
2022/05/10 09:01:07;;;;;;;1.77;1.60;;;17.20;37.40;;;;;;5064118;28;20028;-57
2022/05/10 09:04:08;;;;;;;1.40;1.30;;;17.10;37.60;;;;;;5062435;28;20040;-57
2022/05/10 09:06:46;;;;;;;1.70;1.60;;;17.10;37.50;;;;;;5068458;28;20026;-57
2022/05/10 09:09:25;;;;;;;1.40;1.20;;;17.00;37.40;;;;;;5066128;28;20445;-57
2022/05/10 09:12:13;;;;;;;1.80;1.42;;;17.00;37.70;;;;;;5056302;28;20414;-58
2022/05/10 09:15:03;;;;;;;1.55;1.45;;;17.00;37.80;;;;;;5061523;28;20406;-57
2022/05/10 09:17:36;;;;;;;1.52;1.42;;;16.90;38.20;;;;;;5074451;28;20115;-57
2022/05/10 09:20:04;;;;;;;1.58;1.27;;;16.90;38.20;;;;;;5066965;28;20028;-58
2022/05/10 09:22:53;;;;;;;1.70;1.60;;;16.90;38.20;;;;;;5076002;28;23565;-57
2022/05/10 09:25:35;;;;;;;2.00;1.38;;;16.90;38.20;;;;;;5072665;28;20034;-57
2022/05/10 09:28:21;;;;;;;1.52;1.25;;;16.80;38.00;;;;;;5071576;28;20421;-56
2022/05/10 09:36:28;;;;;;;2.55;1.55;;;16.80;38.40;;;;;;5063140;28;20570;-58
2022/05/10 09:39:14;;;;;;;1.63;1.50;;;16.80;38.60;;;;;;5072834;28;20024;-58
2022/05/10 09:41:47;;;;;;;2.28;1.80;;;16.70;38.60;;;;;;5070036;28;20100;-58
2022/05/10 09:44:26;;;;;;;1.83;1.55;;;16.70;38.20;;;;;;5070485;28;20034;-57
2022/05/10 09:47:13;;;;;;;1.60;1.50;;;16.70;38.00;;;;;;5073406;28;20457;-58
2022/05/10 09:49:39;;;;;;;1.63;1.52;;;16.70;38.10;;;;;;5055431;28;20032;-58
2022/05/10 09:52:15;;;;;;;1.90;1.70;;;16.70;38.20;;;;;;5070121;28;20059;-58
2022/05/10 09:54:43;;;;;;;1.70;1.55;;;16.70;38.50;;;;;;5071732;28;20142;-58
2022/05/10 09:57:23;;;;;;;2.13;1.67;;;16.70;38.50;;;;;;5071765;28;20115;-58
2022/05/10 09:59:49;;;;;;;2.17;1.67;;;16.70;38.50;;;;;;5074550;28;20036;-57
2022/05/10 10:02:26;;;;;;;1.55;1.45;;;16.70;38.60;;;;;;5070049;28;20028;-58
2022/05/10 10:04:53;;;;;;;2.30;1.88;;;16.70;38.50;;;;;;5073590;28;20016;-57
2022/05/10 10:07:25;;;;;;;2.00;1.80;;;16.70;38.60;;;;;;5070054;28;20661;-58
2022/05/10 10:10:14;;;;;;;1.45;1.35;;;16.70;38.40;;;;;;5066983;28;20139;-58
2022/05/10 10:12:42;;;;;;;1.95;1.80;;;16.70;38.20;;;;;;5064919;28;20124;-57
2022/05/10 10:15:37;;;;;;;1.92;1.45;;;16.70;38.20;;;;;;5068977;28;20432;-57
2022/05/10 10:18:09;;;;;;;2.05;1.80;;;16.70;38.30;;;;;;5073860;28;20042;-57
2022/05/10 10:20:39;;;;;;;1.67;1.48;;;16.70;38.40;;;;;;5072189;28;20063;-58
2022/05/10 10:23:37;;;;;;;1.10;1.00;;;16.70;38.20;;;;;;5073124;28;20028;-58
2022/05/10 10:26:24;;;;;;;1.42;1.30;;;16.70;37.70;;;;;;5051606;28;20039;-57
2022/05/10 10:29:27;;;;;;;2.15;1.67;;;16.70;37.80;;;;;;5063802;28;20035;-58
2022/05/10 10:31:59;;;;;;;2.22;1.30;;;16.70;37.70;;;;;;5071761;28;20048;-58
2022/05/10 10:34:33;;;;;;;1.98;1.75;;;16.60;37.70;;;;;;5053744;28;20039;-58
2022/05/10 10:37:13;;;;;;;1.40;1.40;;;16.60;37.90;;;;;;5075344;28;20211;-58
2022/05/10 10:40:04;;;;;;;2.67;2.10;;;16.70;38.20;;;;;;5072749;28;20024;-57
2022/05/10 10:42:51;;;;;;;2.42;1.70;;;16.70;38.30;;;;;;5071363;28;20028;-58
2022/05/10 10:45:18;;;;;;;1.45;1.35;;;16.70;38.00;;;;;;5073242;28;20066;-59
2022/05/10 10:48:21;;;;;;;1.55;1.45;;;16.70;38.40;;;;;;5067934;28;20099;-58
2022/05/10 10:50:47;;;;;;;1.50;1.40;;;16.70;38.30;;;;;;5077562;28;20032;-58
2022/05/10 10:53:13;;;;;;;3.03;1.50;;;16.70;38.30;;;;;;5077034;28;20059;-58
2022/05/10 10:56:17;;;;;;;1.75;1.65;;;16.70;38.20;;;;;;5056544;28;20147;-58
2022/05/10 10:59:18;;;;;;;1.73;1.50;;;16.70;38.20;;;;;;5077215;28;20042;-59
2022/05/10 11:02:23;;;;;;;2.97;1.75;;;16.70;37.90;;;;;;5073484;28;20041;-58
2022/05/10 11:05:05;;;;;;;2.50;1.42;;;16.60;38.10;;;;;;5070202;28;20032;-59
2022/05/10 11:08:17;;;;;;;1.50;1.40;;;16.60;38.30;;;;;;5065827;28;20035;-58
2022/05/10 11:10:51;;;;;;;1.20;1.17;;;16.60;38.10;;;;;;5046116;28;20032;-57
2022/05/10 11:13:25;;;;;;;2.05;1.67;;;16.60;38.10;;;;;;5075646;28;20047;-57
2022/05/10 11:15:51;;;;;;;1.20;1.20;;;16.60;38.20;;;;;;5070521;28;20416;-58
2022/05/10 11:18:28;;;;;;;1.58;1.48;;;16.60;38.10;;;;;;5077257;28;20024;-57
2022/05/10 11:21:09;;;;;;;1.38;1.25;;;16.60;38.10;;;;;;5077338;28;20117;-58
2022/05/10 11:23:53;;;;;;;1.70;1.60;;;16.60;37.90;;;;;;5075563;28;20051;-59
2022/05/10 11:26:25;;;;;;;2.08;1.60;;;16.60;38.70;;;;;;5078237;28;20135;-58
2022/05/10 11:29:10;;;;;;;1.38;1.27;;;16.60;38.30;;;;;;5079355;28;22184;-58
2022/05/10 11:32:12;;;;;;;1.40;1.30;;;16.60;38.30;;;;;;5069873;28;20122;-57
2022/05/10 11:34:53;;;;;;;1.48;1.38;;;16.60;38.30;;;;;;5027537;28;20040;-57
2022/05/10 11:37:32;;;;;;;1.65;1.55;;;16.60;38.50;;;;;;5076706;28;20032;-57
2022/05/10 11:40:27;;;;;;;1.52;1.42;;;16.60;39.20;;;;;;5076482;28;20024;-57
2022/05/10 11:42:57;;;;;;;1.45;1.35;;;16.60;38.50;;;;;;5071557;28;20138;-57
2022/05/10 11:45:42;;;;;;;2.58;1.48;;;16.60;38.80;;;;;;5065752;28;20569;-55
2022/05/10 11:48:45;;;;;;;1.50;1.40;;;16.70;39.10;;;;;;5081297;28;20399;-56
2022/05/10 11:51:38;;;;;;;1.75;1.23;;;16.70;38.80;;;;;;5048583;28;20105;-56
2022/05/10 11:54:22;;;;;;;1.65;1.55;;;16.60;38.50;;;;;;5067124;28;20088;-54
2022/05/10 11:56:50;;;;;;;1.48;1.38;;;16.60;38.30;;;;;;5067065;28;20109;-56
2022/05/10 11:59:32;;;;;;;1.67;1.58;;;16.60;38.90;;;;;;5064511;28;20119;-55
2022/05/10 12:01:59;;;;;;;1.55;1.42;;;16.60;38.90;;;;;;5059370;28;20040;-56
2022/05/10 12:04:41;;;;;;;1.60;1.50;;;16.60;38.80;;;;;;5075841;28;20065;-56
2022/05/10 12:07:19;;;;;;;1.27;1.08;;;16.60;38.60;;;;;;5065604;28;20042;-57
2022/05/10 12:10:02;;;;;;;1.55;1.45;;;16.60;38.70;;;;;;5068369;28;20558;-57
2022/05/10 12:12:31;;;;;;;1.38;1.38;;;16.60;38.70;;;;;;5082564;28;20036;-57
2022/05/10 12:21:22;;;;;;;1.63;1.50;;;16.60;38.30;;;;;;5077884;28;20079;-57
2022/05/10 12:24:05;;;;;;;2.10;1.48;;;16.70;38.60;;;;;;5079593;28;20316;-57
2022/05/10 12:26:51;;;;;;;1.40;1.27;;;16.60;38.80;;;;;;5076687;28;20505;-57
2022/05/10 12:29:32;;;;;;;1.50;1.40;;;16.70;38.30;;;;;;5073352;28;20030;-57
2022/05/10 12:32:12;;;;;;;3.15;1.50;;;16.70;38.00;;;;;;5073048;28;20036;-57
2022/05/10 12:34:49;;;;;;;1.33;1.25;;;16.70;38.00;;;;;;5070979;28;20080;-56
2022/05/10 12:37:26;;;;;;;1.63;1.40;;;16.60;38.20;;;;;;5077942;28;20028;-56
2022/05/10 12:39:57;;;;;;;1.58;1.33;;;16.70;38.30;;;;;;5076416;28;20093;-57
2022/05/10 12:43:10;;;;;;;1.33;1.23;;;16.70;38.20;;;;;;5079590;28;20024;-57
2022/05/10 12:46:02;;;;;;;1.42;1.33;;;16.70;38.40;;;;;;4993046;28;20168;-57
2022/05/10 12:48:47;;;;;;;1.60;1.50;;;16.60;38.50;;;;;;5071386;28;20031;-56
2022/05/10 12:51:19;;;;;;;1.70;1.60;;;16.60;38.90;;;;;;5073064;28;20032;-58
2022/05/10 12:53:50;;;;;;;1.63;1.50;;;16.60;39.00;;;;;;5070719;28;20107;-57
2022/05/10 12:56:21;;;;;;;1.25;1.20;;;16.70;38.80;;;;;;5076087;28;20071;-56
2022/05/10 12:58:51;;;;;;;2.13;1.70;;;16.70;38.50;;;;;;5071950;28;20504;-56
2022/05/10 13:01:19;;;;;;;2.67;1.75;;;16.70;38.60;;;;;;5070844;28;20114;-56
2022/05/10 13:04:16;;;;;;;1.50;1.40;;;16.70;39.10;;;;;;5078211;28;20028;-57
2022/05/10 13:07:08;;;;;;;2.08;1.40;;;16.70;38.90;;;;;;5064688;28;20113;-56
2022/05/10 13:09:52;;;;;;;1.20;1.10;;;16.70;38.70;;;;;;5077827;28;20395;-56
2022/05/10 13:12:23;;;;;;;1.83;1.60;;;16.70;38.90;;;;;;5060902;28;20066;-56
2022/05/10 13:14:53;;;;;;;1.20;1.10;;;16.70;39.10;;;;;;5078591;28;20055;-56
2022/05/10 13:17:26;;;;;;;2.00;1.73;;;16.70;39.00;;;;;;5077587;28;20071;-57
2022/05/10 13:19:53;;;;;;;1.65;1.50;;;16.80;38.90;;;;;;5074755;28;20024;-57
2022/05/10 13:22:20;;;;;;;1.42;1.38;;;16.80;39.10;;;;;;5074877;28;20520;-56
2022/05/10 13:24:52;;;;;;;1.40;1.30;;;16.80;38.70;;;;;;5074606;28;20081;-57
2022/05/10 13:27:28;;;;;;;1.50;1.40;;;16.80;38.60;;;;;;5073027;28;20028;-56
2022/05/10 13:29:56;;;;;;;1.42;1.33;;;16.80;38.60;;;;;;5078217;28;20119;-56
2022/05/10 13:32:33;;;;;;;1.55;1.45;;;16.80;39.00;;;;;;5069793;28;20040;-57
2022/05/10 13:35:26;;;;;;;1.60;1.50;;;16.90;39.60;;;;;;5070025;28;20050;-57
2022/05/10 13:38:06;;;;;;;1.40;1.30;;;16.90;40.50;;;;;;5070184;28;20044;-55
2022/05/10 13:40:40;;;;;;;1.63;1.52;;;16.90;39.90;;;;;;5068646;28;20032;-57